createdAt,value
2017-07-01T00:00:11.375Z,2.70
2017-07-01T00:00:29.371Z,3.08
2017-07-01T00:00:50.690Z,3.97
2017-07-01T00:01:08.064Z,4.37
2017-07-01T00:01:26.802Z,5.30
2017-07-01T00:01:44.207Z,4.30
2017-07-01T00:02:06.226Z,3.90
2017-07-01T00:02:26.910Z,2.40
2017-07-01T00:02:46.343Z,3.42
2017-07-01T00:03:07.344Z,3.65
2017-07-01T00:03:29.341Z,4.30
2017-07-01T00:03:48.011Z,3.60
2017-07-01T00:04:07.158Z,3.20
2017-07-01T00:04:29.279Z,3.30
2017-07-01T00:04:50.886Z,3.60
2017-07-01T00:05:05.730Z,4.20
2017-07-01T00:05:24.310Z,3.30
2017-07-01T00:05:43.308Z,2.80
2017-07-01T00:06:05.024Z,3.47
2017-07-01T00:06:26.015Z,3.22
2017-07-01T00:06:47.297Z,3.25
2017-07-01T00:07:04.296Z,3.30
2017-07-01T00:07:22.288Z,3.83
2017-07-01T00:07:46.091Z,5.25
2017-07-01T00:08:11.690Z,5.15
2017-07-01T00:08:28.283Z,4.90
2017-07-01T00:08:46.201Z,4.00
2017-07-01T00:09:08.955Z,4.10
2017-07-01T00:09:32.794Z,4.57
2017-07-01T00:09:51.323Z,3.72
2017-07-01T00:10:12.252Z,3.42
2017-07-01T00:10:29.657Z,3.62
2017-07-01T00:10:50.246Z,3.90
2017-07-01T00:11:10.241Z,3.90
2017-07-01T00:11:30.047Z,2.55
2017-07-01T00:11:50.234Z,2.50
2017-07-01T00:12:08.543Z,2.67
2017-07-01T00:12:28.225Z,2.60
2017-07-01T00:12:51.222Z,2.60
2017-07-01T00:13:08.557Z,2.40
2017-07-01T00:13:26.796Z,2.70
2017-07-01T00:13:46.642Z,3.50
2017-07-01T00:14:06.609Z,3.67
2017-07-01T00:14:24.323Z,3.75
2017-07-01T00:14:41.234Z,3.90
2017-07-01T00:15:01.195Z,3.20
2017-07-01T00:15:22.190Z,3.12
2017-07-01T00:15:43.891Z,4.15
2017-07-01T00:16:03.139Z,4.22
2017-07-01T00:16:24.178Z,5.05
2017-07-01T00:16:44.173Z,3.70
2017-07-01T00:17:01.095Z,3.30
2017-07-01T00:17:21.271Z,3.05
2017-07-01T00:17:46.161Z,3.00
2017-07-01T00:18:04.588Z,2.90
2017-07-01T00:18:20.763Z,2.50
2017-07-01T00:18:40.149Z,2.60
2017-07-01T00:19:02.038Z,3.00
2017-07-01T00:19:24.361Z,3.70
2017-07-01T00:19:46.887Z,3.57
2017-07-01T00:20:06.138Z,3.47
2017-07-01T00:20:29.071Z,3.40
2017-07-01T00:20:50.579Z,3.80
2017-07-01T00:21:14.124Z,3.60
2017-07-01T00:21:38.114Z,2.80
2017-07-01T00:22:00.517Z,2.50
2017-07-01T00:22:24.989Z,3.00
2017-07-01T00:22:45.980Z,3.22
2017-07-01T00:23:07.096Z,3.58
2017-07-01T00:23:27.123Z,3.30
2017-07-01T00:23:44.346Z,2.62
2017-07-01T00:24:00.733Z,2.65
2017-07-01T00:24:21.083Z,2.80
2017-07-01T00:24:44.076Z,3.08
2017-07-01T00:25:04.091Z,3.05
2017-07-01T00:25:28.694Z,3.20
2017-07-01T00:25:48.063Z,2.92
2017-07-01T00:26:11.070Z,3.20
2017-07-01T00:26:30.854Z,3.67
2017-07-01T00:26:48.564Z,3.78
2017-07-01T00:27:07.821Z,4.05
2017-07-01T00:27:24.512Z,3.97
2017-07-01T00:27:49.043Z,3.40
2017-07-01T00:28:09.035Z,3.05
2017-07-01T00:28:31.989Z,3.00
2017-07-01T00:28:48.990Z,2.67
2017-07-01T00:29:09.024Z,2.40
2017-07-01T00:29:30.563Z,2.35
2017-07-01T00:29:49.015Z,2.60
2017-07-01T00:30:08.555Z,3.00
2017-07-01T00:30:33.008Z,3.65
2017-07-01T00:30:50.539Z,3.00
2017-07-01T00:31:13.483Z,2.70
2017-07-01T00:31:32.993Z,2.35
2017-07-01T00:31:55.990Z,2.55
2017-07-01T00:32:16.029Z,3.03
2017-07-01T00:32:37.980Z,3.30
2017-07-01T00:32:56.978Z,3.10
2017-07-01T00:33:14.009Z,2.80
2017-07-01T00:33:34.067Z,2.67
2017-07-01T00:33:54.966Z,2.42
2017-07-01T00:34:15.962Z,2.50
2017-07-01T00:34:36.433Z,2.60
2017-07-01T00:34:55.377Z,2.83
2017-07-01T00:35:13.730Z,3.60
2017-07-01T00:35:29.882Z,3.60
2017-07-01T00:35:48.523Z,3.30
2017-07-01T00:36:06.957Z,2.60
2017-07-01T00:36:29.889Z,2.45
2017-07-01T00:36:51.930Z,2.37
2017-07-01T00:37:12.191Z,2.70
2017-07-01T00:37:28.463Z,2.70
2017-07-01T00:37:48.659Z,2.70
2017-07-01T00:38:08.513Z,2.70
2017-07-01T00:38:25.497Z,2.67
2017-07-01T00:38:41.474Z,2.90
2017-07-01T00:39:04.620Z,3.00
2017-07-01T00:39:25.298Z,2.80
2017-07-01T00:39:46.893Z,3.30
2017-07-01T00:40:09.030Z,2.85
2017-07-01T00:40:27.885Z,3.03
2017-07-01T00:40:47.880Z,2.95
2017-07-01T00:41:05.878Z,2.92
2017-07-01T00:41:23.984Z,3.00
2017-07-01T00:41:43.026Z,2.62
2017-07-01T00:42:04.427Z,2.62
2017-07-01T00:42:23.068Z,2.47
2017-07-01T00:42:46.718Z,2.85
2017-07-01T00:43:08.334Z,2.60
2017-07-01T00:43:28.849Z,2.60
2017-07-01T00:43:46.843Z,2.85
2017-07-01T00:44:07.839Z,3.20
2017-07-01T00:44:26.094Z,2.95
2017-07-01T00:44:45.607Z,3.58
2017-07-01T00:45:07.524Z,3.37
2017-07-01T00:45:27.823Z,3.25
2017-07-01T00:45:46.572Z,2.42
2017-07-01T00:46:03.943Z,2.60
2017-07-01T00:46:24.628Z,3.80
2017-07-01T00:46:44.810Z,3.60
2017-07-01T00:47:04.803Z,3.95
2017-07-01T00:47:25.799Z,3.35
2017-07-01T00:47:43.811Z,4.07
2017-07-01T00:48:01.393Z,3.70
2017-07-01T00:48:21.673Z,3.92
2017-07-01T00:48:38.774Z,3.72
2017-07-01T00:48:58.537Z,3.20
2017-07-01T00:49:20.654Z,2.60
2017-07-01T00:49:37.447Z,3.95
2017-07-01T00:49:57.925Z,4.30
2017-07-01T00:50:17.074Z,4.90
2017-07-01T00:50:37.769Z,4.30
2017-07-01T00:50:56.764Z,5.12
2017-07-01T00:51:18.326Z,4.40
2017-07-01T00:51:38.749Z,3.85
2017-07-01T00:51:59.271Z,2.65
2017-07-01T00:52:19.740Z,3.05
2017-07-01T00:52:37.742Z,3.50
2017-07-01T00:52:58.151Z,3.90
2017-07-01T00:53:17.195Z,3.70
2017-07-01T00:53:37.372Z,4.07
2017-07-01T00:54:01.720Z,3.33
2017-07-01T00:54:18.841Z,3.28
2017-07-01T00:54:40.247Z,2.50
2017-07-01T00:55:02.666Z,2.70
2017-07-01T00:55:22.534Z,2.97
2017-07-01T00:55:44.342Z,3.62
2017-07-01T00:56:06.168Z,3.78
2017-07-01T00:56:21.695Z,3.87
2017-07-01T00:56:42.686Z,3.78
2017-07-01T00:56:58.889Z,3.30
2017-07-01T00:57:18.244Z,3.67
2017-07-01T00:57:36.476Z,4.00
2017-07-01T00:57:57.057Z,4.00
2017-07-01T00:58:19.091Z,3.90
2017-07-01T00:58:37.663Z,3.67
2017-07-01T00:58:57.371Z,3.50
2017-07-01T00:59:18.775Z,3.40
2017-07-01T00:59:38.653Z,3.00
2017-07-01T00:59:56.357Z,3.60
2017-07-01T01:00:12.223Z,3.30
2017-07-01T01:00:32.639Z,2.92
2017-07-01T01:00:51.749Z,2.75
2017-07-01T01:01:10.632Z,4.00
2017-07-01T01:01:28.640Z,4.30
2017-07-01T01:01:46.624Z,4.37
2017-07-01T01:02:05.621Z,3.15
2017-07-01T01:02:23.500Z,3.90
2017-07-01T01:02:45.413Z,4.28
2017-07-01T01:03:06.099Z,4.28
2017-07-01T01:03:29.603Z,3.40
2017-07-01T01:03:49.518Z,3.08
2017-07-01T01:04:10.598Z,3.28
2017-07-01T01:04:30.170Z,3.62
2017-07-01T01:04:50.626Z,3.10
2017-07-01T01:05:11.583Z,3.00
2017-07-01T01:05:31.582Z,2.78
2017-07-01T01:05:53.575Z,3.40
2017-07-01T01:06:15.434Z,3.90
2017-07-01T01:06:37.565Z,3.67
2017-07-01T01:06:59.880Z,2.90
2017-07-01T01:07:19.435Z,2.67
2017-07-01T01:07:40.015Z,2.92
2017-07-01T01:08:02.648Z,3.37
2017-07-01T01:08:21.491Z,3.83
2017-07-01T01:08:42.382Z,3.70
2017-07-01T01:08:59.276Z,3.70
2017-07-01T01:09:15.662Z,3.20
2017-07-01T01:09:32.967Z,3.00
2017-07-01T01:09:52.835Z,2.85
2017-07-01T01:10:09.621Z,3.00
2017-07-01T01:10:28.518Z,3.65
2017-07-01T01:10:50.520Z,3.83
2017-07-01T01:11:12.295Z,3.80
2017-07-01T01:11:32.264Z,4.07
2017-07-01T01:11:53.462Z,3.95
2017-07-01T01:12:12.299Z,3.92
2017-07-01T01:12:30.630Z,3.40
2017-07-01T01:12:47.494Z,3.12
2017-07-01T01:13:09.846Z,2.87
2017-07-01T01:13:33.480Z,2.80
2017-07-01T01:13:54.299Z,2.90
2017-07-01T01:14:15.473Z,3.53
2017-07-01T01:14:35.046Z,3.22
2017-07-01T01:14:56.243Z,3.50
2017-07-01T01:15:19.461Z,3.20
2017-07-01T01:15:40.896Z,3.30
2017-07-01T01:16:01.677Z,3.55
2017-07-01T01:16:22.448Z,4.10
2017-07-01T01:16:42.445Z,3.85
2017-07-01T01:17:03.438Z,3.35
2017-07-01T01:17:24.443Z,3.00
2017-07-01T01:17:41.307Z,3.08
2017-07-01T01:18:01.427Z,3.12
2017-07-01T01:18:20.327Z,3.60
2017-07-01T01:18:39.060Z,3.95
2017-07-01T01:19:01.417Z,4.12
2017-07-01T01:19:16.854Z,3.70
2017-07-01T01:19:36.517Z,3.42
2017-07-01T01:19:54.635Z,3.85
2017-07-01T01:20:12.253Z,3.53
2017-07-01T01:20:35.902Z,3.90
2017-07-01T01:20:57.104Z,3.92
2017-07-01T01:21:18.193Z,3.90
2017-07-01T01:21:37.143Z,3.30
2017-07-01T01:21:55.406Z,3.42
2017-07-01T01:22:15.374Z,3.80
2017-07-01T01:22:33.371Z,3.97
2017-07-01T01:22:53.369Z,3.60
2017-07-01T01:23:12.268Z,4.60
2017-07-01T01:23:31.184Z,4.53
2017-07-01T01:23:53.365Z,4.68
2017-07-01T01:24:13.092Z,4.50
2017-07-01T01:24:33.354Z,4.97
2017-07-01T01:24:52.829Z,3.55
2017-07-01T01:25:11.339Z,3.25
2017-07-01T01:25:31.337Z,3.80
2017-07-01T01:25:50.174Z,3.70
2017-07-01T01:26:11.334Z,3.70
2017-07-01T01:26:28.671Z,3.12
2017-07-01T01:26:49.320Z,3.28
2017-07-01T01:27:12.316Z,3.80
2017-07-01T01:27:29.497Z,3.85
2017-07-01T01:27:49.583Z,3.65
2017-07-01T01:28:11.273Z,3.00
2017-07-01T01:28:27.142Z,2.90
2017-07-01T01:28:43.836Z,3.20
2017-07-01T01:29:00.837Z,3.17
2017-07-01T01:29:21.288Z,3.12
2017-07-01T01:29:45.289Z,3.30
2017-07-01T01:30:06.986Z,3.25
2017-07-01T01:30:28.077Z,3.67
2017-07-01T01:30:48.270Z,3.20
2017-07-01T01:31:06.488Z,3.70
2017-07-01T01:31:26.272Z,3.40
2017-07-01T01:31:43.852Z,3.87
2017-07-01T01:32:03.518Z,3.33
2017-07-01T01:32:24.917Z,3.17
2017-07-01T01:32:45.250Z,3.08
2017-07-01T01:33:04.752Z,3.12
2017-07-01T01:33:21.137Z,3.17
2017-07-01T01:33:38.953Z,3.30
2017-07-01T01:33:55.238Z,3.60
2017-07-01T01:34:17.764Z,3.60
2017-07-01T01:34:34.225Z,3.90
2017-07-01T01:34:48.483Z,4.80
2017-07-01T01:35:10.217Z,5.00
2017-07-01T01:35:32.214Z,4.90
2017-07-01T01:35:52.178Z,3.50
2017-07-01T01:36:10.207Z,3.40
2017-07-01T01:36:29.962Z,3.72
2017-07-01T01:36:48.801Z,4.68
2017-07-01T01:37:08.768Z,5.62
2017-07-01T01:37:26.189Z,6.22
2017-07-01T01:37:45.017Z,5.78
2017-07-01T01:38:03.452Z,4.93
2017-07-01T01:38:22.025Z,5.00
2017-07-01T01:38:41.175Z,4.05
2017-07-01T01:38:57.930Z,4.32
2017-07-01T01:39:19.736Z,3.92
2017-07-01T01:39:38.898Z,4.57
2017-07-01T01:39:59.265Z,4.87
2017-07-01T01:40:21.154Z,4.60
2017-07-01T01:40:42.158Z,4.97
2017-07-01T01:41:06.148Z,4.05
2017-07-01T01:41:24.825Z,4.45
2017-07-01T01:41:40.206Z,3.62
2017-07-01T01:42:00.145Z,3.78
2017-07-01T01:42:19.349Z,4.65
2017-07-01T01:42:38.127Z,5.40
2017-07-01T01:42:57.124Z,5.30
2017-07-01T01:43:15.769Z,4.10
2017-07-01T01:43:37.068Z,3.22
2017-07-01T01:43:56.633Z,3.30
2017-07-01T01:44:16.112Z,3.83
2017-07-01T01:44:34.311Z,3.90
2017-07-01T01:44:54.894Z,3.75
2017-07-01T01:45:13.323Z,3.47
2017-07-01T01:45:35.450Z,3.42
2017-07-01T01:45:56.104Z,3.40
2017-07-01T01:46:15.379Z,3.00
2017-07-01T01:46:34.945Z,3.20
2017-07-01T01:46:55.009Z,3.42
2017-07-01T01:47:14.070Z,3.90
2017-07-01T01:47:35.067Z,4.80
2017-07-01T01:47:52.686Z,5.20
2017-07-01T01:48:11.807Z,5.20
2017-07-01T01:48:27.883Z,4.10
2017-07-01T01:48:47.872Z,3.85
2017-07-01T01:49:06.597Z,3.33
2017-07-01T01:49:24.717Z,3.30
2017-07-01T01:49:42.060Z,3.62
2017-07-01T01:50:03.088Z,3.80
2017-07-01T01:50:21.853Z,3.53
2017-07-01T01:50:41.036Z,3.28
2017-07-01T01:51:05.023Z,3.40
2017-07-01T01:51:25.028Z,4.20
2017-07-01T01:51:45.720Z,4.70
2017-07-01T01:52:05.996Z,4.80
2017-07-01T01:52:25.763Z,3.87
2017-07-01T01:52:43.578Z,3.40
2017-07-01T01:53:02.023Z,3.20
2017-07-01T01:53:21.044Z,3.40
2017-07-01T01:53:39.702Z,3.60
2017-07-01T01:53:55.261Z,3.70
2017-07-01T01:54:17.509Z,4.18
2017-07-01T01:54:37.138Z,3.92
2017-07-01T01:54:52.976Z,4.22
2017-07-01T01:55:12.160Z,4.20
2017-07-01T01:55:30.282Z,4.05
2017-07-01T01:55:48.969Z,4.15
2017-07-01T01:56:07.017Z,3.37
2017-07-01T01:56:24.369Z,3.30
2017-07-01T01:56:43.603Z,3.40
2017-07-01T01:57:02.855Z,3.40
2017-07-01T01:57:24.065Z,3.40
2017-07-01T01:57:46.169Z,3.67
2017-07-01T01:58:07.941Z,4.03
2017-07-01T01:58:29.895Z,4.37
2017-07-01T01:58:50.578Z,4.05
2017-07-01T01:59:07.945Z,3.20
2017-07-01T01:59:29.696Z,3.50
2017-07-01T01:59:47.408Z,3.42
2017-07-01T02:00:06.915Z,3.37
2017-07-01T02:00:28.910Z,3.60
2017-07-01T02:00:47.905Z,3.28
2017-07-01T02:01:08.614Z,3.67
2017-07-01T02:01:27.899Z,3.70
2017-07-01T02:01:48.035Z,4.05
2017-07-01T02:02:09.337Z,4.53
2017-07-01T02:02:28.176Z,4.87
2017-07-01T02:02:46.310Z,5.93
2017-07-01T02:03:06.683Z,5.70
2017-07-01T02:03:25.829Z,5.05
2017-07-01T02:03:45.286Z,4.40
2017-07-01T02:04:03.512Z,4.00
2017-07-01T02:04:21.431Z,4.75
2017-07-01T02:04:40.066Z,4.15
2017-07-01T02:05:00.852Z,4.40
2017-07-01T02:05:17.954Z,3.83
2017-07-01T02:05:38.025Z,3.90
2017-07-01T02:05:57.584Z,3.90
2017-07-01T02:06:16.633Z,4.20
2017-07-01T02:06:35.847Z,4.97
2017-07-01T02:06:51.829Z,4.62
2017-07-01T02:07:14.845Z,5.90
2017-07-01T02:07:32.894Z,5.12
2017-07-01T02:07:49.817Z,5.00
2017-07-01T02:08:13.471Z,3.85
2017-07-01T02:08:51.811Z,3.62
2017-07-01T02:09:11.426Z,3.70
2017-07-01T02:09:29.346Z,3.85
2017-07-01T02:09:45.327Z,4.15
2017-07-01T02:10:04.829Z,4.20
2017-07-01T02:10:27.614Z,4.12
2017-07-01T02:10:50.243Z,4.40
2017-07-01T02:11:08.879Z,4.45
2017-07-01T02:11:26.221Z,4.78
2017-07-01T02:12:10.807Z,4.20
2017-07-01T02:12:32.761Z,3.50
2017-07-01T02:12:53.768Z,3.47
2017-07-01T02:13:14.825Z,3.70
2017-07-01T02:13:30.787Z,3.85
2017-07-01T02:13:50.746Z,4.28
2017-07-01T02:14:13.713Z,4.00
2017-07-01T02:14:34.756Z,3.90
2017-07-01T02:14:58.462Z,3.45
2017-07-01T02:15:19.730Z,3.67
2017-07-01T02:15:40.963Z,3.83
2017-07-01T02:16:08.721Z,3.78
2017-07-01T02:16:48.647Z,3.70
2017-07-01T02:17:20.511Z,5.45
2017-07-01T02:17:44.698Z,7.40
2017-07-01T02:18:12.691Z,5.97
2017-07-01T02:18:35.705Z,3.87
2017-07-01T02:18:57.360Z,4.15
2017-07-01T02:19:17.223Z,4.30
2017-07-01T02:19:36.675Z,4.30
2017-07-01T02:19:56.548Z,4.07
2017-07-01T02:20:22.666Z,4.05
2017-07-01T02:20:46.729Z,3.80
2017-07-01T02:21:16.640Z,3.97
2017-07-01T02:21:55.229Z,4.62
2017-07-01T02:22:58.692Z,4.28
2017-07-01T02:23:20.530Z,4.50
2017-07-01T02:23:57.597Z,4.60
2017-07-01T02:24:18.667Z,4.50
2017-07-01T02:24:35.745Z,4.60
2017-07-01T02:25:04.608Z,5.12
2017-07-01T02:25:35.284Z,4.80
2017-07-01T02:26:03.956Z,4.65
2017-07-01T02:26:24.337Z,4.10
2017-07-01T02:26:44.588Z,4.00
2017-07-01T02:27:05.399Z,4.22
2017-07-01T02:27:21.990Z,4.80
2017-07-01T02:27:40.219Z,4.53
2017-07-01T02:28:02.574Z,4.10
2017-07-01T02:28:25.476Z,4.00
2017-07-01T02:28:45.631Z,4.93
2017-07-01T02:29:14.218Z,5.60
2017-07-01T02:29:35.418Z,5.50
2017-07-01T02:29:54.665Z,4.90
2017-07-01T02:30:13.812Z,5.15
2017-07-01T02:30:31.454Z,5.32
2017-07-01T02:30:49.651Z,4.40
2017-07-01T02:31:11.977Z,5.22
2017-07-01T02:31:34.913Z,4.72
2017-07-01T02:31:58.531Z,5.05
2017-07-01T02:32:15.259Z,4.22
2017-07-01T02:32:32.361Z,4.40
2017-07-01T02:33:02.466Z,4.30
2017-07-01T02:33:24.893Z,4.85
2017-07-01T02:34:05.499Z,4.25
2017-07-01T02:34:28.997Z,3.85
2017-07-01T02:34:57.539Z,4.50
2017-07-01T02:35:16.005Z,4.53
2017-07-01T02:35:33.299Z,4.10
2017-07-01T02:35:57.978Z,4.22
2017-07-01T02:36:26.470Z,4.40
2017-07-01T02:36:47.485Z,4.47
2017-07-01T02:37:06.687Z,5.43
2017-07-01T02:37:28.101Z,5.57
2017-07-01T02:37:44.681Z,4.60
2017-07-01T02:38:07.453Z,4.07
2017-07-01T02:38:27.446Z,3.70
2017-07-01T02:38:49.089Z,3.47
2017-07-01T02:39:10.471Z,3.47
2017-07-01T02:39:35.065Z,3.90
2017-07-01T02:39:58.002Z,3.80
2017-07-01T02:40:16.130Z,3.90
2017-07-01T02:40:40.420Z,3.85
2017-07-01T02:41:00.446Z,4.47
2017-07-01T02:41:21.419Z,4.07
2017-07-01T02:41:43.459Z,3.80
2017-07-01T02:42:04.402Z,4.30
2017-07-01T02:42:25.155Z,4.20
2017-07-01T02:42:43.430Z,4.10
2017-07-01T02:43:04.408Z,3.80
2017-07-01T02:43:21.070Z,4.12
2017-07-01T02:43:37.752Z,4.37
2017-07-01T02:43:53.395Z,4.20
2017-07-01T02:44:16.384Z,3.87
2017-07-01T02:44:36.530Z,4.07
2017-07-01T02:44:55.495Z,4.40
2017-07-01T02:45:14.374Z,5.00
2017-07-01T02:45:53.369Z,5.18
2017-07-01T02:46:23.027Z,6.12
2017-07-01T02:46:45.154Z,4.45
2017-07-01T02:47:08.366Z,3.83
2017-07-01T02:47:36.037Z,3.70
2017-07-01T02:47:56.935Z,4.10
2017-07-01T02:48:32.872Z,3.85
2017-07-01T02:49:10.332Z,3.47
2017-07-01T02:49:28.347Z,3.70
2017-07-01T02:50:01.444Z,3.58
2017-07-01T02:50:36.162Z,3.70
2017-07-01T02:51:10.871Z,4.00
2017-07-01T02:51:37.229Z,4.55
2017-07-01T02:52:06.280Z,4.20
2017-07-01T02:52:27.339Z,3.75
2017-07-01T02:53:05.266Z,3.60
2017-07-01T02:53:25.924Z,4.10
2017-07-01T02:53:43.321Z,9.90
2017-07-01T02:54:01.066Z,9.48
2017-07-01T02:54:26.357Z,9.30
2017-07-01T02:54:59.231Z,4.30
2017-07-01T02:55:30.236Z,4.10
2017-07-01T02:56:11.211Z,4.00
2017-07-01T02:56:35.788Z,4.50
2017-07-01T02:56:54.733Z,4.37
2017-07-01T02:57:12.219Z,4.20
2017-07-01T02:57:35.212Z,4.12
2017-07-01T02:57:54.843Z,4.12
2017-07-01T02:58:16.961Z,4.07
2017-07-01T02:58:37.949Z,4.10
2017-07-01T02:59:03.557Z,4.10
2017-07-01T02:59:39.495Z,4.28
2017-07-01T03:00:00.793Z,5.25
2017-07-01T03:00:24.204Z,5.80
2017-07-01T03:00:42.672Z,4.62
2017-07-01T03:01:01.927Z,4.78
2017-07-01T03:01:21.078Z,4.35
2017-07-01T03:01:41.862Z,4.40
2017-07-01T03:02:02.217Z,4.87
2017-07-01T03:02:21.157Z,5.18
2017-07-01T03:02:45.154Z,4.60
2017-07-01T03:03:14.953Z,4.00
2017-07-01T03:03:35.120Z,4.35
2017-07-01T03:03:56.140Z,5.43
2017-07-01T03:04:13.192Z,5.37
2017-07-01T03:04:32.161Z,4.90
2017-07-01T03:04:57.344Z,4.18
2017-07-01T03:05:17.316Z,3.65
2017-07-01T03:05:34.719Z,4.18
2017-07-01T03:05:51.925Z,3.80
2017-07-01T03:06:12.715Z,4.20
2017-07-01T03:06:29.911Z,4.30
2017-07-01T03:06:47.318Z,4.35
2017-07-01T03:07:04.010Z,4.22
2017-07-01T03:07:26.640Z,4.30
2017-07-01T03:07:45.586Z,4.28
2017-07-01T03:08:08.087Z,4.40
2017-07-01T03:08:30.083Z,3.72
2017-07-01T03:08:53.078Z,3.80
2017-07-01T03:09:13.649Z,4.35
2017-07-01T03:09:34.234Z,4.62
2017-07-01T03:09:52.786Z,5.15
2017-07-01T03:10:12.747Z,5.05
2017-07-01T03:10:30.652Z,5.97
2017-07-01T03:10:49.289Z,6.65
2017-07-01T03:11:06.046Z,5.93
2017-07-01T03:11:23.697Z,5.00
2017-07-01T03:11:42.047Z,4.68
2017-07-01T03:12:01.688Z,4.20
2017-07-01T03:12:19.916Z,4.10
2017-07-01T03:12:36.814Z,4.10
2017-07-01T03:12:54.937Z,3.67
2017-07-01T03:13:17.021Z,3.80
2017-07-01T03:13:38.459Z,3.72
2017-07-01T03:13:54.941Z,5.12
2017-07-01T03:14:17.010Z,4.82
2017-07-01T03:14:35.493Z,5.00
2017-07-01T03:14:52.489Z,4.53
2017-07-01T03:15:17.043Z,4.30
2017-07-01T03:15:34.574Z,4.10
2017-07-01T03:15:54.747Z,4.00
2017-07-01T03:16:18.402Z,4.05
2017-07-01T03:16:37.243Z,3.90
2017-07-01T03:16:54.003Z,3.97
2017-07-01T03:17:12.575Z,3.97
2017-07-01T03:17:30.697Z,4.18
2017-07-01T03:17:50.968Z,4.20
2017-07-01T03:18:10.632Z,3.95
2017-07-01T03:18:31.958Z,3.90
2017-07-01T03:18:54.361Z,3.72
2017-07-01T03:19:14.328Z,4.25
2017-07-01T03:19:33.064Z,4.30
2017-07-01T03:19:56.723Z,4.18
2017-07-01T03:20:19.248Z,4.00
2017-07-01T03:20:36.974Z,3.85
2017-07-01T03:20:58.927Z,3.87
2017-07-01T03:21:15.675Z,3.70
2017-07-01T03:21:36.919Z,3.85
2017-07-01T03:21:53.047Z,4.37
2017-07-01T03:22:09.344Z,4.35
2017-07-01T03:22:28.477Z,4.30
2017-07-01T03:22:45.993Z,3.80
2017-07-01T03:23:07.392Z,4.35
2017-07-01T03:23:25.824Z,4.75
2017-07-01T03:23:42.614Z,5.30
2017-07-01T03:24:05.908Z,5.90
2017-07-01T03:24:26.348Z,5.15
2017-07-01T03:24:48.562Z,5.20
2017-07-01T03:25:06.381Z,4.20
2017-07-01T03:26:38.842Z,5.30
2017-07-01T03:26:57.857Z,4.22
2017-07-01T03:27:16.910Z,4.28
2017-07-01T03:27:36.599Z,4.87
2017-07-01T03:27:54.919Z,4.70
2017-07-01T03:28:15.847Z,4.55
2017-07-01T03:28:37.118Z,4.93
2017-07-01T03:28:58.832Z,5.10
2017-07-01T03:29:27.895Z,5.22
2017-07-01T03:29:49.002Z,4.97
2017-07-01T03:30:15.114Z,4.57
2017-07-01T03:30:33.036Z,3.87
2017-07-01T03:30:53.617Z,3.90
2017-07-01T03:31:11.818Z,4.25
2017-07-01T03:31:33.801Z,5.15
2017-07-01T03:31:53.797Z,5.15
2017-07-01T03:32:16.830Z,4.93
2017-07-01T03:32:37.787Z,4.50
2017-07-01T03:32:58.244Z,4.20
2017-07-01T03:33:16.360Z,4.10
2017-07-01T03:33:41.834Z,3.70
2017-07-01T03:34:02.770Z,3.67
2017-07-01T03:34:27.834Z,4.32
2017-07-01T03:34:49.760Z,5.30
2017-07-01T03:35:09.616Z,5.05
2017-07-01T03:35:30.714Z,4.55
2017-07-01T03:35:49.248Z,4.20
2017-07-01T03:36:10.744Z,4.50
2017-07-01T03:36:32.457Z,4.60
2017-07-01T03:36:57.732Z,4.45
2017-07-01T03:37:37.746Z,4.30
2017-07-01T03:38:53.258Z,5.07
2017-07-01T03:39:26.702Z,6.22
2017-07-01T03:39:57.696Z,6.03
2017-07-01T03:40:23.571Z,5.82
2017-07-01T03:41:09.242Z,6.20
2017-07-01T03:42:03.671Z,5.65
2017-07-01T03:43:29.655Z,5.20
2017-07-01T03:44:06.293Z,5.50
2017-07-01T03:44:57.651Z,5.45
2017-07-01T03:45:32.219Z,5.87
2017-07-01T03:45:58.423Z,7.95
2017-07-01T03:46:26.283Z,7.23
2017-07-01T03:46:48.618Z,5.15
2017-07-01T03:47:08.979Z,4.60
2017-07-01T03:47:46.606Z,5.10
2017-07-01T03:48:04.599Z,5.28
2017-07-01T03:48:26.083Z,4.90
2017-07-01T03:49:08.586Z,4.10
2017-07-01T03:49:37.579Z,4.40
2017-07-01T03:49:58.348Z,4.40
2017-07-01T03:50:22.570Z,5.18
2017-07-01T03:50:44.846Z,5.70
2017-07-01T03:51:06.562Z,6.72
2017-07-01T03:51:24.977Z,5.72
2017-07-01T03:51:42.283Z,6.30
2017-07-01T03:52:03.065Z,5.18
2017-07-01T03:52:22.321Z,4.53
2017-07-01T03:52:41.284Z,4.15
2017-07-01T03:53:19.358Z,4.40
2017-07-01T03:53:38.712Z,4.50
2017-07-01T03:54:00.529Z,4.32
2017-07-01T03:54:23.525Z,4.60
2017-07-01T03:54:45.517Z,5.10
2017-07-01T03:55:09.514Z,5.40
2017-07-01T03:55:31.511Z,5.90
2017-07-01T03:55:52.958Z,5.30
2017-07-01T03:56:10.155Z,5.22
2017-07-01T03:56:29.106Z,5.55
2017-07-01T03:56:47.646Z,5.40
2017-07-01T03:57:07.494Z,5.20
2017-07-01T03:57:33.108Z,4.30
2017-07-01T03:57:56.481Z,4.18
2017-07-01T03:58:24.473Z,4.37
2017-07-01T03:58:47.241Z,5.30
2017-07-01T03:59:04.503Z,5.40
2017-07-01T03:59:25.031Z,5.85
2017-07-01T03:59:47.966Z,5.32
2017-07-01T04:00:06.601Z,4.78
2017-07-01T04:00:25.851Z,4.43
2017-07-01T04:00:43.673Z,4.12
2017-07-01T04:01:08.554Z,4.25
2017-07-01T04:01:25.854Z,5.55
2017-07-01T04:01:46.234Z,6.60
2017-07-01T04:02:04.871Z,6.50
2017-07-01T04:02:27.424Z,5.47
2017-07-01T04:02:45.317Z,4.43
2017-07-01T04:03:06.413Z,4.57
2017-07-01T04:03:23.423Z,5.45
2017-07-01T04:03:46.407Z,5.40
2017-07-01T04:04:09.403Z,5.03
2017-07-01T04:04:29.434Z,4.22
2017-07-01T04:04:55.393Z,5.18
2017-07-01T04:05:17.897Z,6.25
2017-07-01T04:05:39.704Z,6.45
2017-07-01T04:05:58.958Z,6.40
2017-07-01T04:06:19.406Z,5.85
2017-07-01T04:06:36.947Z,5.45
2017-07-01T04:06:54.873Z,5.50
2017-07-01T04:07:14.376Z,6.47
2017-07-01T04:07:31.361Z,6.55
2017-07-01T04:07:54.357Z,6.07
2017-07-01T04:08:16.373Z,4.70
2017-07-01T04:08:36.350Z,4.65
2017-07-01T04:08:57.345Z,4.43
2017-07-01T04:09:16.074Z,4.70
2017-07-01T04:09:41.338Z,4.62
2017-07-01T04:10:02.331Z,5.10
2017-07-01T04:10:24.786Z,4.90
2017-07-01T04:10:47.323Z,4.62
2017-07-01T04:11:03.903Z,4.43
2017-07-01T04:11:18.653Z,5.00
2017-07-01T04:11:40.770Z,5.28
2017-07-01T04:12:03.196Z,5.45
2017-07-01T04:12:22.034Z,5.05
2017-07-01T04:12:40.771Z,4.65
2017-07-01T04:13:01.295Z,4.40
2017-07-01T04:13:23.269Z,4.57
2017-07-01T04:13:46.207Z,5.30
2017-07-01T04:14:05.281Z,5.65
2017-07-01T04:14:26.277Z,5.18
2017-07-01T04:14:50.272Z,5.45
2017-07-01T04:15:10.267Z,5.37
2017-07-01T04:15:34.756Z,5.30
2017-07-01T04:15:55.258Z,4.60
2017-07-01T04:16:17.966Z,4.60
2017-07-01T04:16:35.368Z,4.90
2017-07-01T04:16:56.155Z,4.60
2017-07-01T04:17:20.245Z,5.45
2017-07-01T04:17:40.809Z,5.43
2017-07-01T04:18:07.236Z,5.47
2017-07-01T04:18:34.053Z,5.15
2017-07-01T04:18:54.430Z,4.43
2017-07-01T04:19:19.515Z,4.55
2017-07-01T04:19:43.170Z,5.00
2017-07-01T04:20:10.207Z,5.20
2017-07-01T04:20:36.622Z,5.32
2017-07-01T04:21:02.196Z,4.68
2017-07-01T04:21:24.142Z,4.60
2017-07-01T04:21:40.188Z,4.60
2017-07-01T04:21:59.678Z,4.85
2017-07-01T04:22:17.589Z,5.30
2017-07-01T04:22:55.379Z,5.30
2017-07-01T04:23:13.745Z,5.32
2017-07-01T04:23:34.903Z,5.85
2017-07-01T04:23:55.918Z,5.87
2017-07-01T04:24:16.159Z,5.35
2017-07-01T04:24:38.154Z,4.97
2017-07-01T04:24:57.028Z,4.50
2017-07-01T04:25:18.020Z,4.68
2017-07-01T04:25:36.459Z,4.60
2017-07-01T04:25:54.887Z,5.25
2017-07-01T04:26:12.393Z,5.57
2017-07-01T04:26:32.141Z,5.85
2017-07-01T04:26:48.542Z,6.20
2017-07-01T04:27:07.285Z,5.97
2017-07-01T04:27:26.632Z,5.32
2017-07-01T04:27:48.751Z,4.97
2017-07-01T04:28:06.878Z,4.90
2017-07-01T04:28:28.105Z,5.07
2017-07-01T04:28:52.102Z,5.57
2017-07-01T04:29:18.459Z,5.45
2017-07-01T04:29:37.912Z,5.10
2017-07-01T04:30:00.538Z,4.93
2017-07-01T04:30:21.940Z,5.50
2017-07-01T04:30:41.395Z,5.43
2017-07-01T04:30:58.292Z,5.75
2017-07-01T04:31:19.073Z,5.68
2017-07-01T04:31:38.069Z,4.97
2017-07-01T04:31:56.870Z,5.10
2017-07-01T04:32:17.755Z,5.30
2017-07-01T04:32:34.116Z,5.80
2017-07-01T04:32:57.051Z,5.12
2017-07-01T04:33:23.047Z,5.95
2017-07-01T04:33:45.042Z,5.75
2017-07-01T04:34:01.294Z,5.15
2017-07-01T04:34:21.038Z,5.10
2017-07-01T04:34:41.032Z,5.60
2017-07-01T04:34:59.955Z,6.68
2017-07-01T04:35:18.285Z,6.90
2017-07-01T04:35:39.795Z,6.43
2017-07-01T04:35:58.429Z,6.60
2017-07-01T04:36:14.305Z,6.47
2017-07-01T04:36:35.007Z,6.32
2017-07-01T04:36:54.749Z,5.78
2017-07-01T04:37:16.456Z,5.90
2017-07-01T04:37:35.403Z,5.78
2017-07-01T04:37:56.189Z,7.75
2017-07-01T04:38:17.186Z,8.45
2017-07-01T04:38:44.217Z,8.82
2017-07-01T04:39:10.636Z,6.43
2017-07-01T04:39:29.971Z,5.40
2017-07-01T04:39:50.879Z,5.18
2017-07-01T04:40:29.076Z,5.15
2017-07-01T04:40:49.047Z,5.20
2017-07-01T04:41:07.369Z,5.35
2017-07-01T04:41:45.254Z,5.35
2017-07-01T04:42:13.939Z,5.32
2017-07-01T04:42:36.762Z,5.80
2017-07-01T04:43:25.925Z,6.32
2017-07-01T04:43:52.156Z,7.45
2017-07-01T04:44:15.587Z,7.83
2017-07-01T04:44:38.930Z,7.40
2017-07-01T04:45:15.485Z,6.93
2017-07-01T04:45:38.897Z,6.05